createdAt,value
2023-02-18T00:02:53.007Z,22.91
2023-02-18T00:07:55.941Z,22.88
2023-02-18T00:13:01.506Z,22.88
2023-02-18T00:18:04.602Z,22.87
2023-02-18T00:23:07.410Z,22.87
2023-02-18T00:28:11.529Z,22.90
2023-02-18T00:33:14.931Z,22.89
2023-02-18T00:38:18.350Z,22.87
2023-02-18T00:43:22.535Z,22.86
2023-02-18T00:48:25.423Z,22.85
2023-02-18T00:53:28.871Z,22.86
2023-02-18T00:58:33.309Z,22.86
2023-02-18T01:03:36.551Z,22.87
2023-02-18T01:08:40.955Z,22.88
2023-02-18T01:13:45.178Z,22.88
2023-02-18T01:18:48.316Z,22.87
2023-02-18T01:23:51.227Z,22.87
2023-02-18T01:28:55.456Z,22.86
2023-02-18T01:33:58.243Z,22.83
2023-02-18T01:39:01.575Z,22.85
2023-02-18T01:44:16.874Z,22.85
2023-02-18T01:49:23.496Z,22.87
2023-02-18T01:54:28.908Z,22.88
2023-02-18T01:59:35.213Z,22.86
2023-02-18T02:04:38.077Z,22.84
2023-02-18T02:09:41.642Z,22.82
2023-02-18T02:15:07.195Z,22.82
2023-02-18T02:20:38.073Z,22.82
2023-02-18T02:26:04.556Z,22.84
2023-02-18T02:31:30.547Z,22.85
2023-02-18T02:36:38.128Z,22.84
2023-02-18T02:41:48.407Z,22.84
2023-02-18T02:46:54.421Z,22.83
2023-02-18T02:52:01.984Z,22.83
2023-02-18T02:57:08.965Z,22.80
2023-02-18T03:02:24.374Z,22.80
2023-02-18T03:08:01.231Z,22.81
2023-02-18T03:13:11.296Z,22.83
2023-02-18T03:18:18.593Z,22.84
2023-02-18T03:23:27.037Z,22.84
2023-02-18T03:28:32.138Z,22.81
2023-02-18T03:33:38.746Z,22.80
2023-02-18T03:38:47.030Z,22.80
2023-02-18T03:43:51.294Z,22.81
2023-02-18T03:48:54.517Z,22.80
2023-02-18T03:53:59.122Z,22.83
2023-02-18T03:59:02.119Z,22.84
2023-02-18T04:04:05.316Z,22.82
2023-02-18T04:09:09.669Z,22.79
2023-02-18T04:14:14.954Z,22.81
2023-02-18T04:19:17.747Z,22.79
2023-02-18T04:24:21.957Z,22.77
2023-02-18T04:29:24.804Z,22.79
2023-02-18T04:34:28.007Z,22.79
2023-02-18T04:39:32.188Z,22.81
2023-02-18T04:44:35.278Z,22.83
2023-02-18T04:49:38.276Z,22.80
2023-02-18T04:54:44.592Z,22.80
2023-02-18T04:59:47.374Z,22.76
2023-02-18T05:04:50.275Z,22.76
2023-02-18T05:09:54.892Z,22.76
2023-02-18T05:14:57.713Z,22.79
2023-02-18T05:20:00.622Z,22.81
2023-02-18T05:25:06.133Z,22.80
2023-02-18T05:30:10.432Z,22.78
2023-02-18T05:35:14.019Z,22.78
2023-02-18T05:40:18.362Z,22.76
2023-02-18T05:45:21.901Z,22.76
2023-02-18T05:50:25.090Z,22.76
2023-02-18T05:55:29.358Z,22.77
2023-02-18T06:00:32.738Z,22.77
2023-02-18T06:05:35.672Z,22.77
2023-02-18T06:10:41.679Z,22.76
2023-02-18T06:15:45.805Z,22.76
2023-02-18T06:20:48.704Z,22.75
2023-02-18T06:25:54.393Z,22.75
2023-02-18T06:30:57.640Z,22.74
2023-02-18T06:36:02.404Z,22.75
2023-02-18T06:41:08.002Z,22.75
2023-02-18T06:46:11.121Z,22.76
2023-02-18T06:51:14.426Z,22.77
2023-02-18T06:56:18.610Z,22.78
2023-02-18T07:01:21.391Z,22.76
2023-02-18T07:06:24.305Z,22.76
2023-02-18T07:11:28.434Z,22.76
2023-02-18T07:16:31.344Z,22.79
2023-02-18T07:21:34.208Z,22.79
2023-02-18T07:26:38.358Z,22.83
2023-02-18T07:31:41.345Z,22.86
2023-02-18T07:36:44.334Z,22.86
2023-02-18T07:41:49.628Z,22.86
2023-02-18T07:46:53.556Z,22.85
2023-02-18T07:51:56.479Z,22.85
2023-02-18T07:57:00.878Z,22.85
2023-02-18T08:02:05.262Z,22.84
2023-02-18T08:07:08.366Z,22.88
2023-02-18T08:12:12.536Z,22.90
2023-02-18T08:17:15.440Z,22.93
2023-02-18T08:22:18.400Z,22.92
2023-02-18T08:27:22.682Z,22.93
2023-02-18T08:32:28.017Z,22.93
2023-02-18T08:37:31.122Z,22.93
2023-02-18T08:42:55.265Z,22.94
2023-02-18T08:48:19.848Z,22.94
2023-02-18T08:53:20.936Z,22.96
2023-02-18T08:58:25.122Z,22.97
2023-02-18T09:03:27.958Z,22.97
2023-02-18T09:08:33.568Z,22.99
2023-02-18T09:13:37.982Z,22.98
2023-02-18T09:18:41.284Z,22.99
2023-02-18T09:23:45.257Z,22.99
2023-02-18T09:28:50.219Z,23.01
2023-02-18T09:33:56.425Z,23.03
2023-02-18T09:38:59.732Z,23.05
2023-02-18T09:44:06.538Z,23.05
2023-02-18T09:49:15.962Z,23.06
2023-02-18T09:54:19.645Z,23.05
2023-02-18T09:59:26.402Z,23.04
2023-02-18T10:04:32.306Z,23.05
2023-02-18T10:09:37.092Z,23.04
2023-02-18T10:14:41.218Z,23.04
2023-02-18T10:19:45.441Z,23.06
2023-02-18T10:24:50.984Z,23.05
2023-02-18T10:29:55.835Z,23.06
2023-02-18T10:35:01.425Z,23.05
2023-02-18T10:40:14.787Z,23.04
2023-02-18T10:45:27.848Z,23.05
2023-02-18T10:50:32.048Z,23.05
2023-02-18T10:55:37.528Z,23.09
2023-02-18T11:00:43.690Z,23.09
2023-02-18T11:05:48.284Z,23.09
2023-02-18T11:10:51.741Z,23.07
2023-02-18T11:15:58.549Z,23.08
2023-02-18T11:21:03.312Z,23.08
2023-02-18T11:26:08.270Z,23.09
2023-02-18T11:31:18.177Z,23.09
2023-02-18T11:36:25.089Z,23.12
2023-02-18T11:41:34.589Z,23.15
2023-02-18T11:46:38.802Z,23.14
2023-02-18T11:51:41.770Z,23.15
2023-02-18T11:56:56.594Z,23.15
2023-02-18T12:02:03.821Z,23.18
2023-02-18T12:07:16.528Z,23.15
2023-02-18T12:12:26.407Z,23.16
2023-02-18T12:17:42.454Z,23.17
2023-02-18T12:22:50.049Z,23.20
2023-02-18T12:28:00.629Z,23.20
2023-02-18T12:33:09.585Z,23.20
2023-02-18T12:39:06.322Z,23.19
2023-02-18T12:44:18.795Z,23.21
2023-02-18T12:49:49.461Z,23.20
2023-02-18T12:55:01.322Z,23.21
2023-02-18T13:00:17.138Z,23.23
2023-02-18T13:05:30.537Z,23.23
2023-02-18T13:10:53.589Z,23.25
2023-02-18T13:15:59.236Z,23.25
2023-02-18T13:21:06.048Z,23.28
2023-02-18T13:26:12.682Z,23.26
2023-02-18T13:31:24.346Z,23.24
2023-02-18T13:36:37.549Z,23.25
2023-02-18T13:41:42.377Z,23.27
2023-02-18T13:46:53.443Z,23.26
2023-02-18T13:51:58.427Z,23.29
2023-02-18T13:57:03.563Z,23.27
2023-02-18T14:02:31.325Z,23.30
2023-02-18T14:07:51.219Z,23.30
2023-02-18T14:13:22.045Z,23.29
2023-02-18T14:18:34.860Z,23.29
2023-02-18T14:23:44.007Z,23.28
2023-02-18T14:28:54.562Z,23.28
2023-02-18T14:34:40.494Z,23.28
2023-02-18T14:39:54.114Z,23.28
2023-02-18T14:45:07.622Z,23.27
2023-02-18T14:50:13.709Z,23.28
2023-02-18T14:55:21.943Z,23.29
2023-02-18T15:00:29.031Z,23.30
2023-02-18T15:05:33.509Z,23.31
2023-02-18T15:10:41.102Z,23.31
2023-02-18T15:15:44.853Z,23.31
2023-02-18T15:20:47.700Z,23.33
2023-02-18T15:25:54.150Z,23.38
2023-02-18T15:30:58.557Z,23.51
2023-02-18T15:36:03.034Z,23.60
2023-02-18T15:41:11.267Z,23.83
2023-02-18T15:46:14.917Z,24.14
2023-02-18T15:51:23.089Z,26.25
2023-02-18T15:56:31.980Z,26.78
2023-02-18T16:01:35.188Z,27.05
2023-02-18T16:06:40.103Z,26.69
2023-02-18T16:11:46.505Z,26.26
2023-02-18T16:17:06.320Z,25.16
2023-02-18T16:22:25.582Z,24.88
2023-02-18T16:27:38.609Z,24.75
2023-02-18T16:32:42.225Z,24.67
2023-02-18T16:37:46.534Z,24.56
2023-02-18T16:42:50.772Z,24.38
2023-02-18T16:47:53.613Z,24.26
2023-02-18T16:52:56.454Z,24.16
2023-02-18T16:58:01.071Z,24.04
2023-02-18T17:03:03.960Z,23.96
2023-02-18T17:08:16.541Z,23.88
2023-02-18T17:13:23.127Z,23.80
2023-02-18T17:18:27.039Z,23.76
2023-02-18T17:23:29.915Z,23.69
2023-02-18T17:28:34.043Z,23.65
2023-02-18T17:33:36.956Z,23.64
2023-02-18T17:38:40.109Z,23.61
2023-02-18T17:43:44.528Z,23.58
2023-02-18T17:48:48.069Z,23.59
2023-02-18T17:53:50.949Z,23.57
2023-02-18T17:58:55.212Z,23.54
2023-02-18T18:03:58.065Z,23.49
2023-02-18T18:09:00.887Z,23.44
2023-02-18T18:14:05.153Z,23.43
2023-02-18T18:19:08.014Z,23.41
2023-02-18T18:24:12.814Z,23.41
2023-02-18T18:29:16.958Z,23.38
2023-02-18T18:34:21.032Z,23.37
2023-02-18T18:39:23.866Z,23.36
2023-02-18T18:44:28.088Z,23.34
2023-02-18T18:49:30.873Z,23.33
2023-02-18T18:54:33.758Z,23.29
2023-02-18T18:59:37.900Z,23.28
2023-02-18T19:04:40.709Z,23.29
2023-02-18T19:09:43.613Z,23.29
2023-02-18T19:14:47.763Z,23.29
2023-02-18T19:19:50.581Z,23.26
2023-02-18T19:24:53.389Z,23.25
2023-02-18T19:29:58.666Z,23.25
2023-02-18T19:35:01.605Z,23.24
2023-02-18T19:40:05.704Z,23.25
2023-02-18T19:45:11.110Z,23.24
2023-02-18T19:50:15.621Z,23.24
2023-02-18T19:55:18.617Z,23.23
2023-02-18T20:00:23.550Z,23.20
2023-02-18T20:05:26.453Z,23.17
2023-02-18T20:10:29.274Z,23.17
2023-02-18T20:15:33.469Z,23.17
2023-02-18T20:20:36.315Z,23.19
2023-02-18T20:25:39.748Z,23.18
2023-02-18T20:30:44.594Z,23.19
2023-02-18T20:35:56.226Z,23.17
2023-02-18T20:41:04.559Z,23.15
2023-02-18T20:46:10.171Z,23.14
2023-02-18T20:51:14.588Z,23.14
2023-02-18T20:56:21.496Z,23.14
2023-02-18T21:01:25.720Z,23.12
2023-02-18T21:06:29.319Z,23.12
2023-02-18T21:11:32.274Z,23.13
2023-02-18T21:16:39.462Z,23.14
2023-02-18T21:21:42.823Z,23.12
2023-02-18T21:26:45.618Z,23.09
2023-02-18T21:31:50.061Z,23.09
2023-02-18T21:36:52.912Z,23.08
2023-02-18T21:41:57.074Z,23.08
2023-02-18T21:47:03.281Z,23.07
2023-02-18T21:52:09.413Z,23.08
2023-02-18T21:57:14.025Z,23.08
2023-02-18T22:02:20.026Z,23.07
2023-02-18T22:07:24.221Z,23.06
2023-02-18T22:12:27.614Z,23.05
2023-02-18T22:17:32.106Z,23.03
2023-02-18T22:22:35.186Z,23.04
2023-02-18T22:27:39.855Z,23.03
2023-02-18T22:32:44.426Z,23.05
2023-02-18T22:37:48.474Z,23.03
2023-02-18T22:42:51.314Z,23.03
2023-02-18T22:47:57.691Z,23.01
2023-02-18T22:53:00.582Z,23.01
2023-02-18T22:58:03.962Z,23.01
2023-02-18T23:03:13.697Z,22.99
2023-02-18T23:08:16.629Z,22.99
2023-02-18T23:13:21.495Z,23.00
2023-02-18T23:18:26.744Z,23.00
2023-02-18T23:23:29.619Z,23.00
2023-02-18T23:28:47.489Z,22.98
2023-02-18T23:33:59.494Z,22.97
2023-02-18T23:39:04.611Z,22.96
2023-02-18T23:44:08.919Z,22.95
2023-02-18T23:49:14.490Z,22.97
2023-02-18T23:54:22.779Z,22.97
2023-02-18T23:59:26.930Z,22.98
